Time;durP1;ratioP1;P1;durP2;ratioP2;P2;SDS_P1;SDS_P2;PMS_P1;PMS_P2;Temp;Humidity;BMP_temperature;BMP_pressure;BME280_temperature;BME280_humidity;BME280_pressure;Samples;Min_cycle;Max_cycle;Signal;HPM_P1;HPM_P2
2023/04/09 00:01:05;;;;;;;;;;;;;;;9.48;100.00;102555.69;5017868;28;20429;-74
2023/04/09 00:03:31;;;;;;;;;;;;;;;9.44;100.00;102552.28;5026691;28;19920;-73
2023/04/09 00:05:56;;;;;;;;;;;;;;;9.43;100.00;102542.50;5020108;28;20468;-73
2023/04/09 00:08:24;;;;;;;;;;;;;;;9.45;100.00;102543.31;5028786;28;20351;-74
2023/04/09 00:10:49;;;;;;;;;;;;;;;9.43;100.00;102546.97;5025930;28;19924;-73
2023/04/09 00:13:15;;;;;;;;;;;;;;;9.36;100.00;102542.84;5030746;28;20287;-73
2023/04/09 00:15:40;;;;;;;;;;;;;;;9.38;100.00;102544.50;5017507;28;20534;-73
2023/04/09 00:18:05;;;;;;;;;;;;;;;9.33;100.00;102545.66;5017336;28;20662;-73
2023/04/09 00:20:30;;;;;;;;;;;;;;;9.38;100.00;102544.50;5021458;28;19932;-73
2023/04/09 00:22:57;;;;;;;;;;;;;;;9.40;100.00;102547.16;5022451;28;19920;-73
2023/04/09 00:25:22;;;;;;;;;;;;;;;9.36;100.00;102546.38;5013193;28;20522;-73
2023/04/09 00:27:47;;;;;;;;;;;;;;;9.36;100.00;102548.22;5021811;28;19948;-73
2023/04/09 00:30:12;;;;;;;;;;;;;;;9.39;100.00;102542.72;5014368;28;19978;-73
2023/04/09 00:32:38;;;;;;;;;;;;;;;9.37;100.00;102537.41;5019060;28;19924;-73
2023/04/09 00:35:03;;;;;;;;;;;;;;;9.39;100.00;102526.63;5025063;28;19967;-73
2023/04/09 00:37:28;;;;;;;;;;;;;;;9.34;100.00;102531.34;5023436;28;19921;-73
2023/04/09 00:39:53;;;;;;;;;;;;;;;9.34;100.00;102526.81;5024200;28;20062;-73
2023/04/09 00:42:20;;;;;;;;;;;;;;;9.21;100.00;102520.31;5022827;28;19960;-73
2023/04/09 00:44:45;;;;;;;;;;;;;;;9.28;100.00;102521.72;5022003;28;20450;-73
2023/04/09 00:47:10;;;;;;;;;;;;;;;9.23;100.00;102518.41;5031032;28;20369;-74
2023/04/09 00:49:36;;;;;;;;;;;;;;;9.28;100.00;102517.25;5028070;28;20364;-73
2023/04/09 00:52:01;;;;;;;;;;;;;;;9.25;100.00;102520.06;5032022;28;19917;-73
2023/04/09 00:54:26;;;;;;;;;;;;;;;9.22;100.00;102520.22;5022420;28;20207;-73
2023/04/09 00:56:51;;;;;;;;;;;;;;;9.25;100.00;102519.22;5032139;28;20280;-73
2023/04/09 00:59:17;;;;;;;;;;;;;;;9.33;100.00;102519.72;5024121;28;20043;-73
2023/04/09 01:01:42;;;;;;;;;;;;;;;9.25;100.00;102520.06;5016084;28;19920;-73
2023/04/09 01:04:07;;;;;;;;;;;;;;;9.21;100.00;102514.94;5025138;28;19925;-73
2023/04/09 01:06:44;;;;;;;;;;;;;;;9.19;100.00;102515.00;5018657;28;19921;-73
2023/04/09 01:09:10;;;;;;;;;;;;;;;9.22;100.00;102514.00;5017842;28;19921;-73
2023/04/09 01:11:42;;;;;;;;;;;;;;;9.22;100.00;102512.16;5025087;28;20385;-73
2023/04/09 01:14:17;;;;;;;;;;;;;;;9.22;100.00;102514.00;5001628;28;20044;-73
2023/04/09 01:16:43;;;;;;;;;;;;;;;9.25;100.00;102511.19;5020211;28;19925;-73
2023/04/09 01:19:10;;;;;;;;;;;;;;;9.26;100.00;102507.56;5020693;28;19974;-73
2023/04/09 01:21:35;;;;;;;;;;;;;;;9.21;100.00;102507.75;5018120;28;19970;-73
2023/04/09 01:24:19;;;;;;;;;;;;;;;9.26;100.00;102504.88;5021630;28;19921;-73
2023/04/09 01:26:45;;;;;;;;;;;;;;;9.24;100.00;102510.28;5020584;28;19929;-73
2023/04/09 01:29:10;;;;;;;;;;;;;;;9.28;100.00;102508.34;5022260;28;19921;-74
2023/04/09 01:31:36;;;;;;;;;;;;;;;9.23;100.00;102507.69;5028200;28;19925;-74
2023/04/09 01:34:01;;;;;;;;;;;;;;;9.24;100.00;102504.94;5021671;28;20043;-73
2023/04/09 01:36:26;;;;;;;;;;;;;;;9.16;100.00;102501.72;5008628;28;20302;-73
2023/04/09 01:38:52;;;;;;;;;;;;;;;9.24;100.00;102509.44;5034939;28;20288;-73
2023/04/09 01:41:18;;;;;;;;;;;;;;;9.24;100.00;102502.25;5018449;28;20009;-73
2023/04/09 01:43:43;;;;;;;;;;;;;;;9.26;100.00;102504.88;5025650;28;20272;-73
2023/04/09 01:46:09;;;;;;;;;;;;;;;9.26;100.00;102500.38;5027140;28;19977;-73
2023/04/09 01:48:34;;;;;;;;;;;;;;;9.25;100.00;102497.78;5002749;28;19932;-73
2023/04/09 01:50:59;;;;;;;;;;;;;;;9.29;100.00;102499.34;5020421;28;19953;-73
2023/04/09 01:53:27;;;;;;;;;;;;;;;9.26;100.00;102500.38;5020823;28;20011;-73
2023/04/09 01:55:52;;;;;;;;;;;;;;;9.22;100.00;102495.25;5015789;28;20589;-73
2023/04/09 01:58:18;;;;;;;;;;;;;;;9.17;100.00;102500.78;5021228;28;20222;-73
2023/04/09 02:00:47;;;;;;;;;;;;;;;9.12;100.00;102497.47;5023307;28;19991;-73
2023/04/09 02:03:16;;;;;;;;;;;;;;;9.14;100.00;102496.44;5024337;28;19928;-73
2023/04/09 02:05:44;;;;;;;;;;;;;;;9.09;100.00;102497.59;5005542;28;19921;-73
2023/04/09 02:08:09;;;;;;;;;;;;;;;9.05;100.00;102496.84;5028812;28;19927;-73
2023/04/09 02:10:35;;;;;;;;;;;;;;;9.08;100.00;102496.72;5026024;28;19921;-73
2023/04/09 02:13:00;;;;;;;;;;;;;;;9.06;100.00;102503.94;5026295;28;19920;-73
2023/04/09 02:15:25;;;;;;;;;;;;;;;9.11;100.00;102496.59;5019161;28;19929;-73
2023/04/09 02:17:50;;;;;;;;;;;;;;;9.05;100.00;102498.69;5012706;28;20394;-73
2023/04/09 02:20:17;;;;;;;;;;;;;;;9.09;100.00;102503.81;5015094;28;20616;-73
2023/04/09 02:22:42;;;;;;;;;;;;;;;9.02;100.00;102498.81;5008369;28;19921;-73
2023/04/09 02:25:07;;;;;;;;;;;;;;;8.96;100.00;102492.78;5033412;28;19987;-73
2023/04/09 02:27:32;;;;;;;;;;;;;;;9.00;100.00;102494.38;5020950;28;20278;-73
2023/04/09 02:29:58;;;;;;;;;;;;;;;9.02;100.00;102491.63;5023019;28;20217;-74
2023/04/09 02:32:23;;;;;;;;;;;;;;;8.92;100.00;102488.50;5010859;28;20028;-73
2023/04/09 02:34:48;;;;;;;;;;;;;;;8.90;100.00;102487.69;5003532;28;19928;-73
2023/04/09 02:37:13;;;;;;;;;;;;;;;8.90;100.00;102493.03;5019731;28;19944;-74
2023/04/09 02:39:39;;;;;;;;;;;;;;;8.93;100.00;102492.91;5022277;28;20303;-73
2023/04/09 02:42:06;;;;;;;;;;;;;;;8.92;100.00;102487.63;5027670;28;20007;-73
2023/04/09 02:44:31;;;;;;;;;;;;;;;8.90;100.00;102484.16;5023602;28;20378;-73
2023/04/09 02:46:57;;;;;;;;;;;;;;;8.91;100.00;102483.22;5006882;28;19921;-73
2023/04/09 02:49:22;;;;;;;;;;;;;;;8.87;100.00;102481.59;5027226;28;20238;-73
2023/04/09 02:51:47;;;;;;;;;;;;;;;8.89;100.00;102479.72;5012108;28;19917;-73
2023/04/09 02:54:12;;;;;;;;;;;;;;;8.58;100.00;102430.19;5016470;28;20516;-73
2023/04/09 02:56:37;;;;;;;;;;;;;;;8.85;100.00;102482.53;5025370;28;20371;-73
2023/04/09 02:59:03;;;;;;;;;;;;;;;8.79;100.00;102485.50;5026130;28;19921;-74
2023/04/09 03:01:28;;;;;;;;;;;;;;;8.78;100.00;102478.38;5020582;28;19964;-74
2023/04/09 03:03:53;;;;;;;;;;;;;;;8.83;100.00;102476.38;5024944;28;20403;-73
2023/04/09 03:06:18;;;;;;;;;;;;;;;8.77;100.00;102479.31;5025250;28;19931;-74
2023/04/09 03:08:44;;;;;;;;;;;;;;;8.70;100.00;102470.69;5022761;28;20019;-74
2023/04/09 03:11:09;;;;;;;;;;;;;;;8.79;100.00;102477.44;5006513;28;19921;-74
2023/04/09 03:13:34;;;;;;;;;;;;;;;8.73;100.00;102477.75;5009824;28;19921;-74
2023/04/09 03:15:59;;;;;;;;;;;;;;;8.74;100.00;102473.25;5016224;28;19933;-74
2023/04/09 03:18:24;;;;;;;;;;;;;;;8.73;100.00;102467.03;5014540;28;19921;-74
2023/04/09 03:20:50;;;;;;;;;;;;;;;8.66;100.00;102473.59;5027081;28;19920;-74
2023/04/09 03:23:15;;;;;;;;;;;;;;;8.38;100.00;102422.06;5023061;28;19913;-73
2023/04/09 03:25:41;;;;;;;;;;;;;;;8.59;100.00;102467.63;5018555;28;21165;-74
2023/04/09 03:28:06;;;;;;;;;;;;;;;8.49;100.00;102463.59;5020031;28;20272;-74
2023/04/09 03:30:32;;;;;;;;;;;;;;;8.55;100.00;102472.25;5027196;28;20153;-74
2023/04/09 03:32:58;;;;;;;;;;;;;;;8.50;100.00;102460.84;5001422;28;19968;-74
2023/04/09 03:35:23;;;;;;;;;;;;;;;8.57;100.00;102471.31;5022173;28;19960;-74
2023/04/09 03:37:48;;;;;;;;;;;;;;;8.53;100.00;102458.03;5001964;28;20427;-74
2023/04/09 03:40:14;;;;;;;;;;;;;;;8.46;100.00;102461.03;5013245;28;20259;-74
2023/04/09 03:42:41;;;;;;;;;;;;;;;8.48;100.00;102454.69;5007050;28;20364;-74
2023/04/09 03:45:06;;;;;;;;;;;;;;;8.38;100.00;102450.66;5011172;28;19947;-74
2023/04/09 03:47:31;;;;;;;;;;;;;;;8.46;100.00;102458.34;5001020;28;21262;-74
2023/04/09 03:49:57;;;;;;;;;;;;;;;8.48;100.00;102452.00;5000846;28;20409;-74
2023/04/09 03:52:22;;;;;;;;;;;;;;;8.33;100.00;102450.88;5018909;28;19928;-74
2023/04/09 03:54:47;;;;;;;;;;;;;;;8.36;100.00;102441.81;5009055;28;20454;-74
2023/04/09 03:57:12;;;;;;;;;;;;;;;8.15;100.00;102420.41;5019499;28;20549;-74
2023/04/09 03:59:37;;;;;;;;;;;;;;;8.26;100.00;102444.88;5004044;28;19921;-74
2023/04/09 04:02:03;;;;;;;;;;;;;;;8.25;100.00;102447.63;5028790;28;19947;-74
2023/04/09 04:04:28;;;;;;;;;;;;;;;8.26;100.00;102442.19;5016211;28;19932;-74
2023/04/09 04:06:53;;;;;;;;;;;;;;;8.16;100.00;102445.34;5015545;28;19928;-74
2023/04/09 04:09:18;;;;;;;;;;;;;;;8.11;100.00;102443.72;4999317;28;19960;-75
2023/04/09 04:11:43;;;;;;;;;;;;;;;8.03;100.00;102448.53;5021671;28;19921;-74
2023/04/09 04:14:09;;;;;;;;;;;;;;;7.92;100.00;102450.75;5000747;28;20713;-74
2023/04/09 04:16:34;;;;;;;;;;;;;;;7.90;100.00;102460.66;5015979;28;20414;-74
2023/04/09 04:18:59;;;;;;;;;;;;;;;7.76;100.00;102456.75;5021398;28;20124;-74
2023/04/09 04:21:24;;;;;;;;;;;;;;;7.68;100.00;102458.00;5016453;28;19921;-74
2023/04/09 04:23:50;;;;;;;;;;;;;;;7.54;100.00;102455.84;5023322;28;19928;-74
2023/04/09 04:26:15;;;;;;;;;;;;;;;7.44;100.00;102452.66;5008168;28;19975;-74
2023/04/09 04:28:40;;;;;;;;;;;;;;;7.26;100.00;102460.44;5019241;28;20378;-74
2023/04/09 04:31:09;;;;;;;;;;;;;;;7.16;100.00;102457.25;5017436;28;19921;-74
2023/04/09 04:33:34;;;;;;;;;;;;;;;7.11;100.00;102455.69;5023878;28;19932;-74
2023/04/09 04:36:06;;;;;;;;;;;;;;;7.02;100.00;102462.22;5006081;28;19924;-74
2023/04/09 04:38:32;;;;;;;;;;;;;;;6.92;100.00;102461.69;5037597;28;20382;-74
2023/04/09 04:40:57;;;;;;;;;;;;;;;6.75;100.00;102465.84;5018377;28;19921;-74
2023/04/09 04:43:23;;;;;;;;;;;;;;;6.72;100.00;102468.63;5032442;28;20067;-74
2023/04/09 04:45:48;;;;;;;;;;;;;;;6.71;100.00;102466.03;5023198;28;19990;-74
2023/04/09 04:48:13;;;;;;;;;;;;;;;6.66;100.00;102473.31;5018502;28;19917;-74
2023/04/09 04:50:38;;;;;;;;;;;;;;;6.38;100.00;102450.25;5031587;28;19917;-74
2023/04/09 04:53:04;;;;;;;;;;;;;;;6.46;100.00;102469.56;5028174;28;19941;-74
2023/04/09 04:55:29;;;;;;;;;;;;;;;6.39;100.00;102468.00;5005879;28;20031;-73
2023/04/09 04:57:54;;;;;;;;;;;;;;;6.33;100.00;102473.56;5022498;28;20620;-74
2023/04/09 05:00:19;;;;;;;;;;;;;;;6.33;100.00;102473.56;5027125;28;19956;-74
2023/04/09 05:02:46;;;;;;;;;;;;;;;6.33;100.00;102474.44;5034564;28;19948;-74
2023/04/09 05:05:11;;;;;;;;;;;;;;;6.28;100.00;102466.56;5023304;28;19925;-74
2023/04/09 05:07:36;;;;;;;;;;;;;;;6.28;100.00;102473.72;5033548;28;19935;-74
2023/04/09 05:10:02;;;;;;;;;;;;;;;6.23;100.00;102470.31;5017180;28;19928;-74
2023/04/09 05:12:29;;;;;;;;;;;;;;;6.24;100.00;102461.41;5023809;28;19951;-74
2023/04/09 05:14:55;;;;;;;;;;;;;;;6.14;100.00;102460.84;5020754;28;20276;-74
2023/04/09 05:17:20;;;;;;;;;;;;;;;6.14;100.00;102466.16;5021446;28;20399;-74
2023/04/09 05:19:49;;;;;;;;;;;;;;;5.88;100.00;102438.53;5019292;28;20259;-74
2023/04/09 05:22:14;;;;;;;;;;;;;;;6.02;100.00;102461.22;5022273;28;19928;-74
2023/04/09 05:24:40;;;;;;;;;;;;;;;5.89;100.00;102469.59;5009247;28;20301;-74
2023/04/09 05:27:05;;;;;;;;;;;;;;;5.92;100.00;102463.28;5031586;28;20343;-74
2023/04/09 05:29:30;;;;;;;;;;;;;;;6.07;100.00;102461.94;5016835;28;19921;-73
2023/04/09 05:31:56;;;;;;;;;;;;;;;5.94;100.00;102467.66;5003635;28;19925;-75
2023/04/09 05:34:21;;;;;;;;;;;;;;;5.95;100.00;102474.75;5019803;28;19925;-74
2023/04/09 05:36:46;;;;;;;;;;;;;;;5.96;100.00;102463.13;5003508;28;19928;-74
2023/04/09 05:39:11;;;;;;;;;;;;;;;5.93;100.00;102470.38;5003706;28;20529;-74
2023/04/09 05:41:37;;;;;;;;;;;;;;;5.93;100.00;102473.03;5021202;28;19932;-74
2023/04/09 05:44:02;;;;;;;;;;;;;;;6.01;100.00;102468.38;5019638;28;19964;-74
2023/04/09 05:46:27;;;;;;;;;;;;;;;6.02;100.00;102471.88;5008019;28;20339;-74
2023/04/09 05:48:53;;;;;;;;;;;;;;;6.03;100.00;102474.53;5009453;28;19967;-74
2023/04/09 05:51:18;;;;;;;;;;;;;;;6.09;100.00;102473.44;5002093;28;19971;-74
2023/04/09 05:53:43;;;;;;;;;;;;;;;6.13;100.00;102469.75;5022754;28;20008;-74
2023/04/09 05:56:13;;;;;;;;;;;;;;;6.19;100.00;102472.22;5005757;28;19964;-74
2023/04/09 05:58:38;;;;;;;;;;;;;;;6.18;100.00;102469.59;5037570;28;19931;-74
2023/04/09 06:01:03;;;;;;;;;;;;;;;6.29;100.00;102473.66;4999688;28;19925;-74
2023/04/09 06:03:28;;;;;;;;;;;;;;;6.29;100.00;102470.97;5017436;28;19929;-74
2023/04/09 06:05:54;;;;;;;;;;;;;;;6.37;100.00;102468.03;5015578;28;19928;-74
2023/04/09 06:08:19;;;;;;;;;;;;;;;6.36;100.00;102471.63;5001666;28;19932;-74
2023/04/09 06:10:44;;;;;;;;;;;;;;;6.35;100.00;102477.03;5019687;28;19963;-74
2023/04/09 06:13:09;;;;;;;;;;;;;;;6.43;100.00;102473.19;5015610;28;20322;-74
2023/04/09 06:15:36;;;;;;;;;;;;;;;6.51;100.00;102474.72;5023231;28;19929;-74
2023/04/09 06:18:01;;;;;;;;;;;;;;;6.60;100.00;102471.75;5019823;28;19921;-74
2023/04/09 06:20:27;;;;;;;;;;;;;;;6.68;100.00;102482.16;5019273;28;20079;-74
2023/04/09 06:22:52;;;;;;;;;;;;;;;6.80;100.00;102480.84;5020188;28;19924;-74
2023/04/09 06:25:17;;;;;;;;;;;;;;;6.90;100.00;102484.91;5020268;28;20312;-74
2023/04/09 06:27:42;;;;;;;;;;;;;;;6.98;100.00;102481.97;5021988;28;20010;-74
2023/04/09 06:30:08;;;;;;;;;;;;;;;7.00;100.00;102485.47;5018023;28;20361;-74
2023/04/09 06:32:33;;;;;;;;;;;;;;;6.98;100.00;102488.19;5019645;28;20668;-75
2023/04/09 06:34:59;;;;;;;;;;;;;;;7.00;100.00;102488.16;5020475;28;20559;-74
2023/04/09 06:37:24;;;;;;;;;;;;;;;7.05;100.00;102489.72;5021907;28;20370;-74
2023/04/09 06:39:51;;;;;;;;;;;;;;;7.16;100.00;102488.41;5019860;28;20288;-74
2023/04/09 06:42:16;;;;;;;;;;;;;;;7.32;100.00;102489.63;5023111;28;20278;-74
2023/04/09 06:44:42;;;;;;;;;;;;;;;7.34;100.00;102486.88;5024188;28;19927;-74
2023/04/09 06:47:07;;;;;;;;;;;;;;;7.52;100.00;102487.13;5010391;28;19973;-74
2023/04/09 06:49:33;;;;;;;;;;;;;;;7.57;100.00;102479.75;5024778;28;19921;-74
2023/04/09 06:51:58;;;;;;;;;;;;;;;7.64;100.00;102486.63;5026803;28;20253;-74
2023/04/09 06:54:23;;;;;;;;;;;;;;;7.74;100.00;102481.78;5031599;28;19920;-74
2023/04/09 06:56:48;;;;;;;;;;;;;;;7.72;100.00;102486.31;5030011;28;20272;-74
2023/04/09 06:59:15;;;;;;;;;;;;;;;7.79;100.00;102485.16;5020893;28;20031;-74
2023/04/09 07:01:40;;;;;;;;;;;;;;;8.06;100.00;102485.88;5024846;28;19924;-74
2023/04/09 07:04:05;;;;;;;;;;;;;;;8.20;100.00;102485.28;5021233;28;19932;-74
2023/04/09 07:06:31;;;;;;;;;;;;;;;8.18;100.00;102489.84;5015067;28;19932;-74
2023/04/09 07:08:56;;;;;;;;;;;;;;;8.17;100.00;102488.09;5022369;28;19925;-74
2023/04/09 07:11:21;;;;;;;;;;;;;;;8.09;100.00;102492.88;5016931;28;20006;-74
2023/04/09 07:13:46;;;;;;;;;;;;;;;7.91;100.00;102487.34;5024540;28;19954;-74
2023/04/09 07:16:12;;;;;;;;;;;;;;;8.09;100.00;102496.41;5020427;28;20011;-74
2023/04/09 07:18:37;;;;;;;;;;;;;;;8.26;100.00;102493.03;5031940;28;20095;-74
2023/04/09 07:21:02;;;;;;;;;;;;;;;8.59;100.00;102491.75;5006532;28;19967;-74
2023/04/09 07:23:27;;;;;;;;;;;;;;;8.92;100.00;102485.81;5022758;28;20011;-74
2023/04/09 07:25:52;;;;;;;;;;;;;;;9.17;100.00;102494.56;5026392;28;19956;-75
2023/04/09 07:28:18;;;;;;;;;;;;;;;9.59;100.00;102486.34;5022327;28;19920;-74
2023/04/09 07:30:45;;;;;;;;;;;;;;;9.86;100.00;102483.28;5019398;28;19921;-74
2023/04/09 07:33:10;;;;;;;;;;;;;;;9.99;100.00;102485.34;5017063;28;20060;-74
2023/04/09 07:35:35;;;;;;;;;;;;;;;10.00;100.00;102489.78;5004820;28;19921;-74
2023/04/09 07:38:00;;;;;;;;;;;;;;;10.13;100.00;102482.88;5020598;28;19921;-74
2023/04/09 07:40:26;;;;;;;;;;;;;;;10.50;100.00;102482.84;5040494;28;19921;-74
2023/04/09 07:42:52;;;;;;;;;;;;;;;10.45;100.00;102464.31;5020369;28;20011;-74
2023/04/09 07:45:17;;;;;;;;;;;;;;;10.47;100.00;102489.25;5017652;28;20395;-75
2023/04/09 07:47:43;;;;;;;;;;;;;;;9.94;100.00;102482.91;5024206;28;19975;-75
2023/04/09 07:50:08;;;;;;;;;;;;;;;10.08;100.00;102484.91;5011913;28;20004;-75
2023/04/09 07:52:34;;;;;;;;;;;;;;;10.32;100.00;102479.25;5022309;28;20397;-74
2023/04/09 07:54:59;;;;;;;;;;;;;;;10.19;100.00;102487.94;5021516;28;20248;-74
2023/04/09 07:57:25;;;;;;;;;;;;;;;10.10;100.00;102479.44;5028815;28;19999;-74
2023/04/09 07:59:52;;;;;;;;;;;;;;;10.25;100.00;102483.19;5025600;28;20644;-74
2023/04/09 08:02:17;;;;;;;;;;;;;;;10.42;100.00;102469.84;5022292;28;20016;-74
2023/04/09 08:04:42;;;;;;;;;;;;;;;10.38;100.00;102475.38;5014616;28;19920;-75
2023/04/09 08:07:07;;;;;;;;;;;;;;;10.52;100.00;102478.28;5011889;28;20422;-75
2023/04/09 08:09:33;;;;;;;;;;;;;;;10.89;100.00;102480.84;5010671;28;20024;-76
2023/04/09 08:11:58;;;;;;;;;;;;;;;10.72;100.00;102481.75;5015345;28;20254;-75
2023/04/09 08:14:23;;;;;;;;;;;;;;;10.76;100.00;102483.31;5016849;28;20249;-74
2023/04/09 08:16:49;;;;;;;;;;;;;;;11.07;100.00;102484.38;5011731;28;19924;-74
2023/04/09 08:19:15;;;;;;;;;;;;;;;11.36;100.00;102482.78;5003434;28;20419;-74
2023/04/09 08:21:42;;;;;;;;;;;;;;;11.18;100.00;102486.50;5015366;28;20035;-75
2023/04/09 08:24:07;;;;;;;;;;;;;;;11.40;100.00;102488.84;5019657;28;19928;-74
2023/04/09 08:26:32;;;;;;;;;;;;;;;11.62;100.00;102488.53;5024080;28;20305;-75
2023/04/09 08:28:57;;;;;;;;;;;;;;;11.75;100.00;102482.50;5018550;28;19921;-74
2023/04/09 08:31:22;;;;;;;;;;;;;;;11.73;100.00;102485.25;5010794;28;20248;-73
2023/04/09 08:33:48;;;;;;;;;;;;;;;12.05;100.00;102487.09;5026585;28;19925;-73
2023/04/09 08:36:13;;;;;;;;;;;;;;;12.38;97.91;102489.63;5002888;28;19971;-74
2023/04/09 08:38:39;;;;;;;;;;;;;;;12.68;93.27;102479.78;5020983;28;19943;-74
2023/04/09 08:41:04;;;;;;;;;;;;;;;12.55;88.44;102477.84;4991982;28;19944;-73
2023/04/09 08:43:30;;;;;;;;;;;;;;;12.33;96.16;102454.03;5019881;28;19925;-74
2023/04/09 08:45:56;;;;;;;;;;;;;;;12.45;89.27;102479.34;5018730;28;20081;-73
2023/04/09 08:48:22;;;;;;;;;;;;;;;12.28;93.40;102481.25;5017592;28;20450;-74
2023/04/09 08:50:47;;;;;;;;;;;;;;;12.53;96.71;102477.09;5016786;28;19924;-74
2023/04/09 08:53:12;;;;;;;;;;;;;;;12.46;90.06;102478.41;4999855;28;20236;-73
2023/04/09 08:55:38;;;;;;;;;;;;;;;12.87;92.37;102475.00;5004237;28;19964;-73
2023/04/09 08:58:04;;;;;;;;;;;;;;;12.63;91.46;102480.09;5019444;28;19947;-74
2023/04/09 09:00:29;;;;;;;;;;;;;;;12.79;89.84;102452.19;5017637;28;19924;-73
2023/04/09 09:03:05;;;;;;;;;;;;;;;13.32;85.73;102471.38;5015539;28;20363;-73
2023/04/09 09:05:36;;;;;;;;;;;;;;;13.37;85.26;102471.06;5026308;28;19928;-73
2023/04/09 09:08:02;;;;;;;;;;;;;;;13.28;87.38;102459.03;5020573;28;19955;-74
2023/04/09 09:10:40;;;;;;;;;;;;;;;13.10;82.00;102459.25;5009629;28;19944;-73
2023/04/09 09:13:17;;;;;;;;;;;;;;;13.41;79.26;102459.16;5011518;28;21398;-73
2023/04/09 09:15:43;;;;;;;;;;;;;;;13.55;80.40;102460.97;5020229;28;19967;-74
2023/04/09 09:18:08;;;;;;;;;;;;;;;13.44;82.15;102450.88;5011468;28;20011;-74
2023/04/09 09:20:33;;;;;;;;;;;;;;;13.79;77.94;102450.38;5002721;28;19975;-74
2023/04/09 09:22:59;;;;;;;;;;;;;;;13.64;84.93;102463.03;5007675;28;19932;-73
2023/04/09 09:25:24;;;;;;;;;;;;;;;13.46;75.04;102459.72;5022050;28;19927;-73
2023/04/09 09:27:50;;;;;;;;;;;;;;;13.95;78.24;102452.94;5014254;28;19971;-74
2023/04/09 09:30:22;;;;;;;;;;;;;;;14.23;80.34;102453.78;5020531;28;19927;-73
2023/04/09 09:32:55;;;;;;;;;;;;;;;13.92;72.36;102459.41;5008947;28;19932;-73
2023/04/09 09:35:20;;;;;;;;;;;;;;;14.14;73.65;102451.72;5014681;28;20015;-74
2023/04/09 09:37:45;;;;;;;;;;;;;;;14.03;72.36;102453.28;5022958;28;20634;-73
2023/04/09 09:40:11;;;;;;;;;;;;;;;14.70;65.71;102446.09;5006467;28;19921;-73
2023/04/09 09:42:36;;;;;;;;;;;;;;;14.71;65.27;102445.13;5052175;28;20372;-74
2023/04/09 09:45:03;;;;;;;;;;;;;;;14.68;72.33;102446.22;5026194;28;19921;-74
2023/04/09 09:47:29;;;;;;;;;;;;;;;14.89;64.43;102448.38;5037548;28;19956;-73
2023/04/09 09:49:54;;;;;;;;;;;;;;;14.62;71.39;102440.34;5018169;28;20047;-72
2023/04/09 09:52:21;;;;;;;;;;;;;;;15.07;66.49;102446.22;5021245;28;19925;-72
2023/04/09 09:54:47;;;;;;;;;;;;;;;15.55;65.46;102440.03;5019810;28;20371;-72
2023/04/09 09:57:12;;;;;;;;;;;;;;;15.49;64.55;102436.94;5027697;28;19936;-73
2023/04/09 09:59:40;;;;;;;;;;;;;;;15.13;61.99;102437.63;5031292;28;20007;-73
2023/04/09 10:02:06;;;;;;;;;;;;;;;15.43;63.90;102430.97;5022062;28;20496;-72
2023/04/09 10:04:38;;;;;;;;;;;;;;;15.32;63.80;102435.44;5018025;28;20439;-73
2023/04/09 10:07:04;;;;;;;;;;;;;;;15.25;66.43;102435.03;5031033;28;19948;-73
2023/04/09 10:09:30;;;;;;;;;;;;;;;15.96;56.16;102421.69;5014966;28;19948;-72
2023/04/09 10:11:55;;;;;;;;;;;;;;;15.56;61.89;102420.09;5014993;28;20423;-73
2023/04/09 10:14:20;;;;;;;;;;;;;;;15.89;56.75;102412.34;5011911;28;20002;-73
2023/04/09 10:16:46;;;;;;;;;;;;;;;15.68;58.66;102410.22;5017767;28;20391;-73
2023/04/09 10:19:14;;;;;;;;;;;;;;;16.37;59.26;102411.38;5017565;28;19921;-73
2023/04/09 10:21:58;;;;;;;;;;;;;;;15.43;58.44;102414.75;5020608;28;19920;-74
2023/04/09 10:24:23;;;;;;;;;;;;;;;16.07;56.94;102407.34;5020479;28;19925;-73
2023/04/09 10:26:49;;;;;;;;;;;;;;;16.70;52.49;102409.72;5015850;28;19948;-73
2023/04/09 10:29:15;;;;;;;;;;;;;;;16.45;58.15;102405.34;5011861;28;20122;-74
2023/04/09 10:32:02;;;;;;;;;;;;;;;16.26;60.66;102406.78;5023084;28;20488;-74
2023/04/09 10:34:28;;;;;;;;;;;;;;;16.97;54.77;102394.97;5013062;28;20208;-73
2023/04/09 10:36:57;;;;;;;;;;;;;;;17.07;55.69;102397.78;5021868;28;19928;-74
2023/04/09 10:39:26;;;;;;;;;;;;;;;17.55;53.05;102393.91;5015883;28;19948;-74
2023/04/09 10:41:51;;;;;;;;;;;;;;;17.90;51.51;102389.19;5017999;28;20057;-74
2023/04/09 10:44:24;;;;;;;;;;;;;;;18.26;47.40;102387.09;4998436;28;20297;-75
2023/04/09 10:46:51;;;;;;;;;;;;;;;17.89;48.91;102384.75;5013653;28;19970;-74
2023/04/09 10:49:22;;;;;;;;;;;;;;;17.42;46.81;102383.19;5026693;28;20284;-73
2023/04/09 10:51:51;;;;;;;;;;;;;;;17.91;47.65;102378.19;5011758;28;19947;-74
2023/04/09 10:54:32;;;;;;;;;;;;;;;17.87;47.99;102376.75;5028140;28;20022;-73
2023/04/09 10:57:07;;;;;;;;;;;;;;;17.40;53.81;102377.03;5013809;28;19925;-74
2023/04/09 10:59:32;;;;;;;;;;;;;;;18.16;47.77;102350.81;5022142;28;19921;-74
2023/04/09 11:01:57;;;;;;;;;;;;;;;17.93;47.55;102370.78;5017603;28;20255;-74
2023/04/09 11:04:22;;;;;;;;;;;;;;;17.98;50.15;102378.56;5013675;28;20272;-74
2023/04/09 11:06:48;;;;;;;;;;;;;;;17.54;50.40;102355.00;5012210;28;20322;-73
2023/04/09 11:09:13;;;;;;;;;;;;;;;19.03;44.05;102372.19;5025015;28;20621;-74
2023/04/09 11:11:38;;;;;;;;;;;;;;;19.43;44.49;102367.69;5010195;28;20006;-74
2023/04/09 11:14:04;;;;;;;;;;;;;;;19.90;45.25;102350.66;5011024;28;19971;-74
2023/04/09 11:16:29;;;;;;;;;;;;;;;20.50;42.90;102351.44;5001071;28;20354;-74
2023/04/09 11:18:55;;;;;;;;;;;;;;;19.60;45.14;102344.31;5013258;28;20043;-73
2023/04/09 11:21:20;;;;;;;;;;;;;;;20.32;43.04;102349.44;5027207;28;20401;-74
2023/04/09 11:23:50;;;;;;;;;;;;;;;20.08;43.98;102342.59;5023350;28;19921;-73
2023/04/09 11:26:15;;;;;;;;;;;;;;;19.44;41.47;102357.66;5021251;28;20664;-74
2023/04/09 11:28:41;;;;;;;;;;;;;;;19.76;40.34;102349.19;5023357;28;19920;-75
2023/04/09 11:31:07;;;;;;;;;;;;;;;20.38;39.79;102348.03;5023083;28;19927;-73
2023/04/09 11:33:33;;;;;;;;;;;;;;;20.93;40.67;102341.78;5026301;28;19956;-74
2023/04/09 11:35:58;;;;;;;;;;;;;;;18.87;43.61;102341.84;5016162;28;19936;-74
2023/04/09 11:38:23;;;;;;;;;;;;;;;18.92;44.31;102350.47;5024081;28;20025;-73
2023/04/09 11:40:50;;;;;;;;;;;;;;;19.11;41.66;102343.38;5015768;28;20303;-74
2023/04/09 11:43:15;;;;;;;;;;;;;;;18.57;46.76;102359.91;5007790;28;20042;-74
2023/04/09 11:45:40;;;;;;;;;;;;;;;19.75;39.20;102342.03;5015096;28;19937;-73
2023/04/09 11:48:05;;;;;;;;;;;;;;;20.77;42.36;102347.06;5017994;28;20003;-73
2023/04/09 11:50:31;;;;;;;;;;;;;;;22.11;39.38;102340.94;5019232;28;19944;-73
2023/04/09 11:52:56;;;;;;;;;;;;;;;21.77;39.44;102344.41;5022010;28;19990;-73
2023/04/09 11:55:22;;;;;;;;;;;;;;;21.48;36.52;102348.19;5015085;28;19952;-74
2023/04/09 11:57:47;;;;;;;;;;;;;;;20.93;40.61;102341.78;5015936;28;19925;-73
2023/04/09 12:00:13;;;;;;;;;;;;;;;21.09;42.18;102337.53;5001841;28;19990;-74
2023/04/09 12:02:40;;;;;;;;;;;;;;;20.30;40.46;102339.72;5022791;28;20391;-73
2023/04/09 12:05:06;;;;;;;;;;;;;;;20.20;41.53;102328.81;5006888;28;20372;-73
2023/04/09 12:07:32;;;;;;;;;;;;;;;20.01;41.71;102329.72;5024618;28;19925;-73
2023/04/09 12:10:01;;;;;;;;;;;;;;;20.66;40.92;102326.22;5028174;28;20294;-73
2023/04/09 12:12:27;;;;;;;;;;;;;;;21.90;39.61;102324.00;5023958;28;19921;-73
2023/04/09 12:14:54;;;;;;;;;;;;;;;20.96;39.36;102330.56;5024914;28;19983;-75
2023/04/09 12:17:20;;;;;;;;;;;;;;;19.94;38.47;102329.44;5028673;28;20085;-74
2023/04/09 12:19:47;;;;;;;;;;;;;;;19.38;42.35;102336.41;5028830;28;20326;-74
2023/04/09 12:22:12;;;;;;;;;;;;;;;19.20;40.42;102334.38;5014674;28;19921;-74
2023/04/09 12:24:37;;;;;;;;;;;;;;;18.12;41.52;102332.03;5020308;28;19925;-74
2023/04/09 12:27:02;;;;;;;;;;;;;;;18.93;43.95;102335.03;5022104;28;20309;-74
2023/04/09 12:29:28;;;;;;;;;;;;;;;18.52;40.76;102332.28;5005503;28;20099;-74